Time;durP1;ratioP1;P1;durP2;ratioP2;P2;SDS_P1;SDS_P2;PMS_P1;PMS_P2;Temp;Humidity;BMP_temperature;BMP_pressure;BME280_temperature;BME280_humidity;BME280_pressure;Samples;Min_cycle;Max_cycle;Signal;HPM_P1;HPM_P2
2022/05/04 00:00:42;;;;;;;9.10;6.40;;;;;;;11.19;100.00;99973.00;6247797;28;20049;-73
2022/05/04 00:03:43;;;;;;;7.40;6.20;;;;;;;11.15;100.00;99980.19;6246243;28;20041;-73
2022/05/04 00:06:44;;;;;;;7.25;6.50;;;;;;;11.12;100.00;99980.41;6246530;28;20436;-72
2022/05/04 00:09:44;;;;;;;9.75;5.97;;;;;;;10.99;100.00;99992.56;6230000;28;20045;-73
2022/05/04 00:12:45;;;;;;;8.90;6.45;;;;;;;11.03;100.00;99978.38;6247321;28;20458;-73
2022/05/04 00:15:46;;;;;;;11.05;6.38;;;;;;;11.03;100.00;99976.59;6247389;28;20072;-73
2022/05/04 00:18:47;;;;;;;9.38;6.15;;;;;;;11.07;100.00;99980.69;6229806;28;20064;-73
2022/05/04 00:21:48;;;;;;;9.25;6.22;;;;;;;11.09;100.00;99984.03;6246422;28;20056;-73
2022/05/04 00:24:49;;;;;;;10.25;7.03;;;;;;;11.12;100.00;99985.63;6229870;28;20046;-73
2022/05/04 00:27:50;;;;;;;8.75;6.32;;;;;;;11.03;100.00;99994.03;6246325;28;20050;-73
2022/05/04 00:30:52;;;;;;;8.38;6.43;;;;;;;11.07;100.00;99990.28;6197311;28;20478;-73
2022/05/04 00:33:53;;;;;;;12.13;7.00;;;;;;;11.04;100.00;99983.50;6229480;28;20052;-73
2022/05/04 00:36:54;;;;;;;11.57;7.28;;;;;;;10.90;100.00;99986.16;6229495;28;20042;-73
2022/05/04 00:39:55;;;;;;;9.77;7.10;;;;;;;10.91;100.00;99990.41;6229378;28;20505;-72
2022/05/04 00:42:56;;;;;;;10.05;6.65;;;;;;;10.85;100.00;99977.75;6246323;28;20041;-73
2022/05/04 00:45:57;;;;;;;11.68;6.60;;;;;;;10.92;100.00;99989.50;6246083;28;20204;-73
2022/05/04 00:48:58;;;;;;;7.57;6.75;;;;;;;11.03;100.00;99988.81;6245910;28;20204;-72
2022/05/04 00:51:59;;;;;;;7.45;6.60;;;;;;;11.03;100.00;99984.41;6229564;28;20045;-73
2022/05/04 00:55:02;;;;;;;9.82;7.03;;;;;;;11.07;100.00;99996.34;6229426;28;20508;-73
2022/05/04 01:01:26;;;;;;;9.35;6.78;;;;;;;11.07;100.00;99996.34;6247144;28;20038;-73
2022/05/04 01:04:27;;;;;;;9.38;6.75;;;;;;;11.04;100.00;99993.94;6245485;28;20135;-73
2022/05/04 01:07:29;;;;;;;10.13;7.13;;;;;;;11.01;100.00;100004.56;6249817;28;20064;-72
2022/05/04 01:10:29;;;;;;;12.40;7.70;;;;;;;11.01;100.00;99995.91;6233779;28;20049;-76
2022/05/04 01:13:31;;;;;;;9.55;6.95;;;;;;;10.99;100.00;100000.38;6250145;28;20045;-73
2022/05/04 01:16:33;;;;;;;9.10;7.10;;;;;;;10.87;100.00;100002.00;6233556;28;20053;-73
2022/05/04 01:19:34;;;;;;;9.90;7.50;;;;;;;10.83;100.00;100001.38;6250054;28;20045;-72
2022/05/04 01:22:36;;;;;;;10.90;7.45;;;;;;;10.69;100.00;100004.00;6251114;28;20050;-72
2022/05/04 01:25:37;;;;;;;9.85;7.43;;;;;;;10.67;100.00;100000.66;6233126;28;20045;-72
2022/05/04 01:28:38;;;;;;;13.45;7.50;;;;;;;10.76;100.00;100009.66;6249558;28;20049;-73
2022/05/04 01:31:40;;;;;;;11.25;7.50;;;;;;;10.78;100.00;100013.03;6266144;28;20394;-73
2022/05/04 01:34:41;;;;;;;10.77;7.70;;;;;;;10.74;100.00;100014.97;6249739;28;20371;-73
2022/05/04 01:37:42;;;;;;;11.93;8.55;;;;;;;10.69;100.00;99998.78;6249433;28;20317;-73
2022/05/04 01:40:42;;;;;;;12.98;8.35;;;;;;;10.61;100.00;100007.06;6233352;28;20083;-73
2022/05/04 01:43:43;;;;;;;12.52;8.70;;;;;;;10.65;100.00;100005.13;6282706;28;20547;-73
2022/05/04 01:46:45;;;;;;;11.85;7.93;;;;;;;10.67;100.00;100011.09;6249534;28;20064;-76
2022/05/04 01:49:46;;;;;;;10.77;8.38;;;;;;;10.73;100.00;100005.50;6233536;28;20120;-76
2022/05/04 01:52:49;;;;;;;11.13;8.45;;;;;;;10.74;100.00;100001.09;6233726;28;20410;-76
2022/05/04 01:55:50;;;;;;;10.40;8.30;;;;;;;10.74;100.00;100004.53;6250615;28;20105;-76
2022/05/04 01:58:51;;;;;;;11.27;8.93;;;;;;;10.76;100.00;100007.06;6250547;28;20054;-76
2022/05/04 02:01:53;;;;;;;11.98;8.70;;;;;;;10.66;100.00;100009.41;6249230;28;20056;-76
2022/05/04 02:04:54;;;;;;;11.02;7.97;;;;;;;10.63;100.00;100004.38;6232739;28;20076;-76
2022/05/04 02:07:55;;;;;;;11.52;8.60;;;;;;;10.70;100.00;100003.06;6249211;28;20046;-76
2022/05/04 02:10:56;;;;;;;10.25;8.32;;;;;;;10.74;100.00;100001.94;6249107;28;20452;-76
2022/05/04 02:13:59;;;;;;;11.60;8.27;;;;;;;10.77;100.00;100001.75;6232865;28;20052;-77
2022/05/04 02:17:00;;;;;;;;;;;;;;;10.83;100.00;100003.97;6248366;28;20041;-76
2022/05/04 02:20:01;;;;;;;11.98;7.90;;;;;;;10.80;100.00;100004.16;6232377;28;20023;-76
2022/05/04 02:23:02;;;;;;;10.98;8.23;;;;;;;10.77;100.00;100006.97;6249926;28;20482;-76
2022/05/04 02:26:03;;;;;;;14.68;8.98;;;;;;;10.80;100.00;100005.94;6232500;28;20052;-76
2022/05/04 02:29:04;;;;;;;11.52;8.40;;;;;;;10.78;100.00;100006.03;6232274;28;20056;-76
2022/05/04 02:32:06;;;;;;;13.10;8.73;;;;;;;10.74;100.00;100007.16;6249928;28;20084;-76
2022/05/04 02:38:27;;;;;;;10.50;8.48;;;;;;;10.77;100.00;100013.94;6248504;28;20105;-77
2022/05/04 02:41:28;;;;;;;11.63;8.40;;;;;;;10.80;100.00;100009.38;6248510;28;20044;-77
2022/05/04 02:44:29;;;;;;;10.18;8.27;;;;;;;10.81;100.00;100015.44;6264870;28;20417;-76
2022/05/04 02:47:30;;;;;;;15.20;8.18;;;;;;;10.80;100.00;100014.59;6232043;28;20120;-76
2022/05/04 02:50:31;;;;;;;12.95;8.90;;;;;;;10.78;100.00;100021.69;6249448;28;20049;-76
2022/05/04 02:53:32;;;;;;;10.85;8.70;;;;;;;10.76;100.00;100020.09;6249420;28;20052;-76
2022/05/04 02:56:33;;;;;;;11.18;8.70;;;;;;;10.69;100.00;100019.66;6247905;28;20046;-77
2022/05/04 02:59:34;;;;;;;13.30;9.27;;;;;;;10.73;100.00;100023.75;6247951;28;20049;-76
2022/05/04 03:02:35;;;;;;;13.65;8.98;;;;;;;10.65;100.00;100026.84;6248032;28;20046;-76
2022/05/04 03:05:36;;;;;;;11.80;8.77;;;;;;;10.58;100.00;100032.50;6247847;28;20120;-77
2022/05/04 03:08:37;;;;;;;10.57;8.35;;;;;;;10.61;100.00;100030.56;6247824;28;20470;-77
2022/05/04 03:11:57;;;;;;;15.48;9.05;;;;;;;10.61;100.00;100035.78;6247597;28;20094;-76
2022/05/04 03:14:58;;;;;;;14.20;9.30;;;;;;;10.60;100.00;100034.09;6248670;28;20041;-77
2022/05/04 03:17:59;;;;;;;11.23;8.68;;;;;;;10.61;100.00;100043.59;6230676;28;20482;-77
2022/05/04 03:21:00;;;;;;;14.40;9.70;;;;;;;10.58;100.00;100035.94;6246677;28;20042;-72
2022/05/04 03:24:01;;;;;;;11.43;8.82;;;;;;;10.62;100.00;100044.44;6229874;28;20056;-73
2022/05/04 03:27:03;;;;;;;17.50;9.93;;;;;;;10.57;100.00;100036.06;6206404;28;20054;-73
2022/05/04 03:30:04;;;;;;;10.23;8.50;;;;;;;10.54;100.00;100041.47;6221549;28;20296;-73
2022/05/04 03:33:05;;;;;;;15.20;8.85;;;;;;;10.52;100.00;100048.53;6241654;28;20478;-73
2022/05/04 03:36:06;;;;;;;13.18;9.20;;;;;;;10.58;100.00;100045.56;6245901;28;20042;-76
2022/05/04 03:39:09;;;;;;;11.27;8.73;;;;;;;10.56;100.00;100047.41;6229827;28;20046;-76
2022/05/04 03:42:12;;;;;;;12.50;8.57;;;;;;;10.54;100.00;100044.91;6213755;28;20041;-77
2022/05/04 03:45:13;;;;;;;10.88;8.63;;;;;;;10.54;100.00;100046.69;6246087;28;20072;-76
2022/05/04 03:48:14;;;;;;;13.10;9.60;;;;;;;10.57;100.00;100051.72;6229113;28;20421;-76
2022/05/04 03:51:19;;;;;;;15.70;9.50;;;;;;;10.49;100.00;100060.00;6201473;28;20041;-76
2022/05/04 03:54:20;;;;;;;10.15;8.43;;;;;;;10.60;100.00;100069.78;6206527;28;20038;-76
2022/05/04 03:57:21;;;;;;;10.13;8.85;;;;;;;10.57;100.00;100065.59;6216874;28;20046;-76
2022/05/04 04:00:22;;;;;;;11.43;9.10;;;;;;;10.58;100.00;100067.25;6222431;28;20042;-75
2022/05/04 04:03:24;;;;;;;12.05;8.75;;;;;;;10.62;100.00;100075.75;6223372;28;20046;-76
2022/05/04 04:06:25;;;;;;;12.77;9.15;;;;;;;10.55;100.00;100079.69;6233257;28;20053;-77
2022/05/04 04:09:26;;;;;;;10.88;8.57;;;;;;;10.54;100.00;100078.81;6280067;28;20486;-77
2022/05/04 04:12:27;;;;;;;12.38;8.85;;;;;;;10.58;100.00;100082.09;6246827;28;20049;-76
2022/05/04 04:15:28;;;;;;;12.98;9.55;;;;;;;10.65;100.00;100080.81;6228273;28;20050;-76
2022/05/04 04:18:29;;;;;;;12.90;8.60;;;;;;;10.76;100.00;100085.34;6205765;28;20061;-76
2022/05/04 04:24:50;;;;;;;11.63;8.68;;;;;;;10.83;100.00;100095.34;6222361;28;20045;-76
2022/05/04 04:27:51;;;;;;;12.25;8.98;;;;;;;10.83;100.00;100092.72;6205305;28;20249;-76
2022/05/04 04:30:52;;;;;;;13.80;9.00;;;;;;;10.85;100.00;100098.69;6189437;28;20525;-75
2022/05/04 04:33:53;;;;;;;13.20;9.15;;;;;;;10.92;100.00;100103.53;6205434;28;20046;-76
2022/05/04 04:36:54;;;;;;;11.55;9.10;;;;;;;10.88;100.00;100101.09;6222994;28;20094;-76
2022/05/04 04:39:55;;;;;;;9.93;8.65;;;;;;;10.86;100.00;100102.97;6221932;28;20499;-76
2022/05/04 04:42:56;;;;;;;14.38;8.65;;;;;;;10.88;100.00;100101.09;6219030;28;20052;-76
2022/05/04 04:45:58;;;;;;;11.10;8.38;;;;;;;10.82;100.00;100103.25;6251038;28;20467;-76
2022/05/04 04:48:59;;;;;;;11.02;9.02;;;;;;;10.89;100.00;100097.56;6250926;28;20490;-77
2022/05/04 04:52:00;;;;;;;13.15;8.77;;;;;;;10.96;100.00;100105.84;6250882;28;20385;-76
2022/05/04 04:55:01;;;;;;;11.70;8.05;;;;;;;11.03;100.00;100109.75;6233137;28;20053;-76
2022/05/04 04:58:03;;;;;;;10.05;8.38;;;;;;;11.05;100.00;100101.81;6245194;28;20052;-72
2022/05/04 05:01:04;;;;;;;11.85;8.50;;;;;;;11.11;100.00;100105.84;6227212;28;20062;-72
2022/05/04 05:04:05;;;;;;;11.98;8.90;;;;;;;11.22;100.00;100111.22;6208830;28;20050;-72
2022/05/04 05:07:06;;;;;;;13.45;9.13;;;;;;;11.23;100.00;100113.72;6224965;28;20074;-72
2022/05/04 05:10:07;;;;;;;11.18;8.48;;;;;;;11.29;100.00;100113.34;6224924;28;20446;-73
2022/05/04 05:13:08;;;;;;;10.00;8.38;;;;;;;11.38;100.00;100111.91;6226147;28;20505;-73
2022/05/04 05:16:09;;;;;;;12.82;8.93;;;;;;;11.39;100.00;100108.38;6208533;28;20042;-72
2022/05/04 05:19:10;;;;;;;12.32;8.55;;;;;;;11.57;100.00;100116.84;6214280;28;20099;-72
2022/05/04 05:22:11;;;;;;;12.85;8.80;;;;;;;11.62;100.00;100117.38;6212223;28;20037;-72
2022/05/04 05:25:12;;;;;;;11.50;7.85;;;;;;;11.67;100.00;100117.06;6250226;28;20073;-72
2022/05/04 05:28:13;;;;;;;12.13;8.25;;;;;;;11.71;100.00;100110.69;6250253;28;20047;-73
2022/05/04 05:31:14;;;;;;;12.88;8.23;;;;;;;11.80;100.00;100120.56;6236317;28;20052;-72
2022/05/04 05:34:15;;;;;;;14.05;9.13;;;;;;;11.89;100.00;100122.59;6229022;28;20042;-72
2022/05/04 05:37:17;;;;;;;14.57;8.63;;;;;;;12.03;100.00;100126.94;6227063;28;20493;-72
2022/05/04 05:40:17;;;;;;;12.60;9.20;;;;;;;12.18;100.00;100122.47;6241789;28;20058;-72
2022/05/04 05:43:18;;;;;;;11.18;8.35;;;;;;;12.24;100.00;100119.44;6232680;28;20290;-72
2022/05/04 05:46:19;;;;;;;13.13;8.57;;;;;;;12.32;100.00;100121.53;6248732;28;20049;-72
2022/05/04 05:49:20;;;;;;;10.90;8.77;;;;;;;12.49;100.00;100129.09;6249763;28;20413;-72
2022/05/04 05:52:21;;;;;;;11.90;8.13;;;;;;;12.68;100.00;100123.47;6248464;28;20037;-73
2022/05/04 05:55:22;;;;;;;10.80;7.78;;;;;;;12.88;100.00;100124.69;6249711;28;20045;-73
2022/05/04 05:58:23;;;;;;;9.18;7.80;;;;;;;13.14;100.00;100134.25;6248430;28;20416;-73
2022/05/04 06:01:25;;;;;;;11.97;7.97;;;;;;;13.28;100.00;100126.28;6248073;28;20525;-73
2022/05/04 06:04:26;;;;;;;10.95;7.28;;;;;;;13.36;100.00;100128.38;6248330;28;20072;-72
2022/05/04 06:07:27;;;;;;;12.53;7.80;;;;;;;13.63;100.00;100130.78;6236274;28;20065;-72
2022/05/04 06:10:28;;;;;;;12.45;7.68;;;;;;;13.85;100.00;100133.53;6208164;28;20663;-73
2022/05/04 06:13:29;;;;;;;11.95;7.72;;;;;;;14.00;100.00;100143.84;6231443;28;20056;-73
2022/05/04 06:16:30;;;;;;;8.40;6.95;;;;;;;14.10;100.00;100139.59;6248002;28;20544;-73
2022/05/04 06:19:31;;;;;;;8.82;6.53;;;;;;;14.06;100.00;100148.63;6249057;28;20042;-72
2022/05/04 06:22:33;;;;;;;7.55;6.20;;;;;;;14.18;100.00;100150.34;6231503;28;20123;-73
2022/05/04 06:25:35;;;;;;;10.53;7.20;;;;;;;14.50;100.00;100160.25;6248111;28;20053;-73
2022/05/04 06:28:36;;;;;;;8.02;6.68;;;;;;;14.77;100.00;100159.13;6247063;28;20286;-73
2022/05/04 06:34:56;;;;;;;9.27;6.47;;;;;;;15.28;92.45;100158.63;6247015;28;20042;-73
2022/05/04 06:37:57;;;;;;;12.63;6.53;;;;;;;15.73;93.87;100168.25;6214226;28;20486;-73
2022/05/04 06:41:00;;;;;;;9.77;6.18;;;;;;;15.96;89.41;100169.00;6248467;28;20053;-73
2022/05/04 06:44:02;;;;;;;10.60;5.35;;;;;;;16.27;82.67;100165.53;6246785;28;20056;-73
2022/05/04 06:47:03;;;;;;;7.90;5.57;;;;;;;16.62;80.24;100160.91;6248051;28;20041;-73
2022/05/04 06:50:04;;;;;;;13.83;5.83;;;;;;;16.41;81.71;100160.91;6229120;28;20417;-73
2022/05/04 06:53:05;;;;;;;9.50;6.45;;;;;;;16.28;81.82;100166.34;6235834;28;20045;-73
2022/05/04 06:56:06;;;;;;;12.13;5.80;;;;;;;16.17;83.07;100158.53;6245385;28;20041;-73
2022/05/04 06:59:07;;;;;;;8.63;5.25;;;;;;;16.30;81.97;100156.53;6229847;28;20057;-73
2022/05/04 07:02:09;;;;;;;8.82;5.53;;;;;;;16.30;80.29;100161.81;6213969;28;20468;-75
2022/05/04 07:05:10;;;;;;;13.23;5.73;;;;;;;16.36;81.59;100163.09;6246525;28;20084;-76
2022/05/04 07:08:11;;;;;;;6.75;5.43;;;;;;;16.39;82.66;100161.06;6229997;28;20279;-76
2022/05/04 07:11:12;;;;;;;11.48;4.32;;;;;;;16.46;76.78;100169.25;6224643;28;20475;-76
2022/05/04 07:14:13;;;;;;;6.82;4.70;;;;;;;16.66;77.20;100165.78;6189511;28;20070;-76
2022/05/04 07:17:14;;;;;;;11.07;5.18;;;;;;;16.66;76.65;100168.41;6238149;28;20425;-76
2022/05/04 07:20:15;;;;;;;11.07;4.63;;;;;;;16.76;76.48;100168.47;6222940;28;20065;-76
2022/05/04 07:23:16;;;;;;;8.98;5.25;;;;;;;16.74;75.82;100167.78;6232861;28;20057;-76
2022/05/04 07:26:17;;;;;;;11.57;5.22;;;;;;;16.84;73.17;100166.06;6245940;28;20497;-76
2022/05/04 07:29:18;;;;;;;13.63;4.95;;;;;;;17.37;72.37;100172.06;6247215;28;20038;-76
2022/05/04 07:32:19;;;;;;;9.32;4.57;;;;;;;17.16;67.54;100167.72;6245668;28;20076;-76
2022/05/04 07:35:20;;;;;;;8.35;5.18;;;;;;;17.18;72.15;100178.97;6246066;28;20464;-76
2022/05/04 07:38:21;;;;;;;7.45;5.32;;;;;;;17.41;75.64;100170.84;6238214;28;20046;-77
2022/05/04 07:44:41;;;;;;;8.38;5.55;;;;;;;17.60;72.29;100180.59;6236920;28;20486;-76
2022/05/04 07:47:42;;;;;;;13.90;6.13;;;;;;;17.83;70.59;100175.94;6226247;28;20073;-77
2022/05/04 07:50:44;;;;;;;11.30;6.32;;;;;;;17.92;70.12;100175.94;6222444;28;20120;-77
2022/05/04 07:53:45;;;;;;;15.05;6.15;;;;;;;18.16;67.17;100182.66;6208095;28;20049;-76
2022/05/04 07:56:46;;;;;;;9.20;6.50;;;;;;;18.27;65.88;100184.31;6262003;28;20045;-77
2022/05/04 08:04:16;;;;;;;9.57;6.43;;;;;;;18.07;70.18;100180.81;6278863;28;20080;-76
2022/05/04 08:06:28;;;;;;;8.55;5.93;;;;;;;19.23;64.63;100187.69;6226849;28;20080;-77
2022/05/04 08:09:34;;;;;;;7.30;6.10;;;;;;;19.22;65.01;100187.84;6220984;28;20565;-77
2022/05/04 08:12:35;;;;;;;10.30;6.65;;;;;;;19.52;64.36;100182.25;6229232;28;20145;-77
2022/05/04 08:15:37;;;;;;;12.33;6.70;;;;;;;19.71;58.33;100183.97;6214150;28;20045;-77
2022/05/04 08:18:40;;;;;;;10.15;7.20;;;;;;;19.55;57.61;100180.28;6233905;28;20502;-76
2022/05/04 08:21:41;;;;;;;7.82;6.22;;;;;;;19.54;61.69;100182.13;6250429;28;20060;-77
2022/05/04 08:24:42;;;;;;;12.23;5.73;;;;;;;19.56;58.70;100184.59;6234046;28;20057;-77
2022/05/04 08:27:42;;;;;;;7.25;5.60;;;;;;;19.87;59.72;100193.91;6249656;28;20049;-76
2022/05/04 08:30:43;;;;;;;11.40;5.73;;;;;;;20.01;55.00;100194.34;6245254;28;20120;-77
2022/05/04 08:33:44;;;;;;;9.40;5.43;;;;;;;20.45;55.76;100189.94;6230937;28;20054;-77
2022/05/04 08:36:45;;;;;;;9.60;6.33;;;;;;;20.92;56.36;100189.59;6248120;28;20041;-77
2022/05/04 08:39:46;;;;;;;8.93;6.50;;;;;;;21.20;54.55;100197.34;6233548;28;20080;-77
2022/05/04 08:42:46;;;;;;;9.87;5.93;;;;;;;21.09;54.26;100187.88;6225158;28;20050;-73
2022/05/04 08:45:51;;;;;;;8.77;6.30;;;;;;;21.00;54.49;100183.53;6225363;28;20057;-72
2022/05/04 08:48:53;;;;;;;11.52;5.65;;;;;;;20.76;55.80;100194.81;6272370;28;20437;-72
2022/05/04 08:51:54;;;;;;;11.30;6.00;;;;;;;20.43;56.78;100193.72;6251145;28;20053;-72
2022/05/04 08:54:56;;;;;;;8.02;5.20;;;;;;;20.25;58.67;100191.91;6266464;28;20500;-73
2022/05/04 08:57:57;;;;;;;11.23;5.65;;;;;;;20.00;57.91;100192.69;6251013;28;20041;-77
2022/05/04 09:00:58;;;;;;;8.47;5.43;;;;;;;20.83;55.96;100202.97;6226050;28;20525;-77
2022/05/04 09:03:59;;;;;;;7.97;5.70;;;;;;;20.63;57.60;100197.03;6241735;28;20083;-76
2022/05/04 09:07:01;;;;;;;7.75;5.70;;;;;;;20.60;55.55;100197.34;6225156;28;20076;-77
2022/05/04 09:10:02;;;;;;;9.95;5.63;;;;;;;20.82;58.06;100199.50;6192703;28;20493;-76
2022/05/04 09:13:05;;;;;;;7.50;5.80;;;;;;;20.78;54.39;100194.66;6224838;28;20054;-77
2022/05/04 09:16:06;;;;;;;12.18;5.45;;;;;;;21.05;54.11;100191.00;6226046;28;20129;-77
2022/05/04 09:19:12;;;;;;;8.10;5.23;;;;;;;20.42;56.73;100198.19;6224789;28;20046;-76
2022/05/04 09:22:16;;;;;;;10.60;5.15;;;;;;;20.36;55.03;100193.50;6225870;28;20437;-76
2022/05/04 09:25:20;;;;;;;6.38;5.28;;;;;;;20.85;54.77;100207.13;6208642;28;20056;-76
2022/05/04 09:28:24;;;;;;;7.82;5.30;;;;;;;20.93;53.66;100195.75;6241147;28;20069;-77
2022/05/04 09:31:32;;;;;;;8.15;5.40;;;;;;;21.49;58.46;100198.84;6224400;28;20081;-77
2022/05/04 09:34:35;;;;;;;7.93;5.78;;;;;;;21.72;52.61;100205.22;6208230;28;20471;-76
2022/05/04 09:47:45;;;;;;;8.43;5.60;;;;;;;21.84;50.51;100186.31;6248841;28;20086;-79
2022/05/04 09:50:49;;;;;;;10.65;5.53;;;;;;;21.28;52.03;100185.97;6216798;28;20063;-79
2022/05/04 09:53:50;;;;;;;13.33;6.30;;;;;;;20.80;53.83;100190.03;6232166;28;20387;-78
2022/05/04 09:57:10;;;;;;;8.70;5.75;;;;;;;21.41;52.40;100183.66;6250113;28;20041;-77
2022/05/04 10:00:14;;;;;;;8.77;5.88;;;;;;;21.89;48.13;100176.88;6248438;28;20135;-76
2022/05/04 10:03:18;;;;;;;9.30;5.50;;;;;;;22.12;47.37;100182.34;6216216;28;20144;-77
2022/05/04 10:06:23;;;;;;;7.95;5.53;;;;;;;21.47;52.49;100167.13;6249615;28;20049;-77
2022/05/04 10:09:23;;;;;;;10.63;5.82;;;;;;;20.96;51.00;100176.00;6232464;28;20073;-76
2022/05/04 10:12:27;;;;;;;8.53;5.73;;;;;;;21.09;51.74;100171.94;6249473;28;20504;-78
2022/05/04 10:15:29;;;;;;;10.48;5.97;;;;;;;21.49;48.13;100162.50;6231658;28;20053;-77
2022/05/04 10:18:32;;;;;;;6.85;4.70;;;;;;;22.57;51.33;100169.59;6247952;28;20140;-77
2022/05/04 10:21:34;;;;;;;9.13;4.93;;;;;;;23.09;45.27;100149.69;6247955;28;20064;-74
2022/05/04 10:24:35;;;;;;;8.45;4.60;;;;;;;;;;6231297;28;20168;-74
2022/05/04 10:27:41;;;;;;;8.13;4.40;;;;;;;23.93;47.40;100156.03;6247716;28;20053;-74
2022/05/04 10:30:54;;;;;;;8.32;4.65;;;;;;;24.34;40.96;100153.03;6264370;28;20422;-74
2022/05/04 10:34:02;;;;;;;6.13;4.00;;;;;;;24.34;41.27;100152.22;6278475;28;20041;-74
2022/05/04 10:37:03;;;;;;;6.10;4.45;;;;;;;24.59;41.93;100152.84;6245594;28;20590;-74
2022/05/04 10:40:10;;;;;;;6.47;4.60;;;;;;;23.93;37.90;100145.38;6245971;28;20053;-74
2022/05/04 10:43:13;;;;;;;9.43;4.47;;;;;;;23.27;40.52;100139.63;6247081;28;20282;-76
2022/05/04 10:46:16;;;;;;;6.25;4.55;;;;;;;23.61;40.24;100141.06;6247899;28;20053;-74
2022/05/04 10:49:17;;;;;;;7.53;3.72;;;;;;;24.58;40.40;100145.00;6234915;28;20053;-76
2022/05/04 10:52:18;;;;;;;6.30;4.22;;;;;;;24.29;37.09;100135.91;6189755;28;20037;-74
2022/05/04 10:55:19;;;;;;;5.72;4.40;;;;;;;23.90;40.72;100123.59;6205947;28;20066;-74
2022/05/04 10:58:37;;;;;;;5.33;4.43;;;;;;;22.92;41.11;100125.75;6189396;28;20196;-75
2022/05/04 11:01:39;;;;;;;6.65;4.07;;;;;;;21.97;42.09;100122.91;6222013;28;20317;-77
2022/05/04 11:04:40;;;;;;;4.78;3.90;;;;;;;21.84;41.92;100123.38;6222125;28;20053;-77
2022/05/04 11:07:45;;;;;;;5.88;4.35;;;;;;;21.33;43.76;100120.81;6238727;28;20056;-74
2022/05/04 11:10:47;;;;;;;6.57;4.20;;;;;;;22.84;40.00;100117.00;6229717;28;20711;-74
2022/05/04 11:13:48;;;;;;;4.30;3.72;;;;;;;23.24;38.23;100115.16;6229828;28;20056;-74
2022/05/04 11:16:55;;;;;;;7.65;4.10;;;;;;;23.85;38.12;100112.66;6213285;28;20049;-73
2022/05/04 11:19:56;;;;;;;9.85;3.80;;;;;;;24.31;42.43;100112.56;6230263;28;20057;-73
2022/05/04 11:22:56;;;;;;;5.67;3.70;;;;;;;24.66;35.18;100110.25;6263153;28;20057;-73
2022/05/04 11:25:57;;;;;;;6.95;3.88;;;;;;;23.91;36.58;100103.94;6214001;28;20278;-74
2022/05/04 11:28:58;;;;;;;4.93;3.73;;;;;;;24.37;37.01;100103.03;6246474;28;20052;-74
2022/05/04 11:32:06;;;;;;;6.15;3.95;;;;;;;24.81;34.61;100097.75;6246345;28;20041;-74
2022/05/04 11:35:13;;;;;;;6.53;3.70;;;;;;;25.22;37.42;100099.88;6213767;28;20485;-74
2022/05/04 11:38:20;;;;;;;4.65;3.50;;;;;;;25.60;37.80;100101.53;6262136;28;20491;-74
2022/05/04 11:41:21;;;;;;;8.75;3.75;;;;;;;25.81;34.56;100101.50;6232162;28;20044;-74
2022/05/04 11:44:30;;;;;;;4.90;3.58;;;;;;;25.67;33.62;100094.41;6206443;28;20425;-74
2022/05/04 11:47:31;;;;;;;5.35;3.40;;;;;;;24.69;36.46;100096.53;6254642;28;20414;-73
2022/05/04 11:50:32;;;;;;;5.05;3.85;;;;;;;23.94;36.58;100090.25;6205104;28;20057;-74
2022/05/04 11:53:34;;;;;;;5.35;3.47;;;;;;;23.69;36.35;100090.41;6232896;28;20041;-74
2022/05/04 11:56:36;;;;;;;5.10;3.80;;;;;;;22.76;37.75;100085.09;6213196;28;20144;-74
2022/05/04 11:59:36;;;;;;;7.18;3.70;;;;;;;22.05;38.22;100077.75;6222254;28;20046;-73
2022/05/04 12:02:37;;;;;;;5.13;3.73;;;;;;;22.89;38.40;100080.03;6221508;28;20581;-74
2022/05/04 12:05:39;;;;;;;5.20;3.60;;;;;;;23.83;36.36;100088.03;6204882;28;20046;-74
2022/05/04 12:08:41;;;;;;;12.00;3.83;;;;;;;24.36;34.77;100085.34;6221180;28;20296;-73
2022/05/04 12:11:43;;;;;;;7.00;4.10;;;;;;;24.58;36.54;100076.47;6222191;28;20413;-74
2022/05/04 12:14:44;;;;;;;6.85;4.53;;;;;;;24.55;37.56;100068.03;6221061;28;20483;-73
2022/05/04 12:17:45;;;;;;;7.73;4.40;;;;;;;23.52;38.19;100068.41;6223883;28;20071;-74
2022/05/04 12:20:48;;;;;;;7.38;4.03;;;;;;;23.17;39.23;100075.13;6218499;28;20111;-74
2022/05/04 12:23:51;;;;;;;8.80;4.13;;;;;;;23.01;40.72;100072.50;6221077;28;20062;-74
2022/05/04 12:26:55;;;;;;;6.45;4.20;;;;;;;22.93;41.16;100068.88;6222395;28;20044;-73
2022/05/04 12:33:20;;;;;;;7.97;4.10;;;;;;;22.56;39.73;100063.38;6222511;28;20041;-77
2022/05/04 12:36:23;;;;;;;7.22;4.50;;;;;;;22.64;39.66;100061.53;6222240;28;20168;-76
2022/05/04 12:39:24;;;;;;;11.30;4.10;;;;;;;22.65;39.27;100060.53;6204854;28;20084;-76
2022/05/04 12:42:25;;;;;;;6.10;4.93;;;;;;;22.79;40.50;100058.13;6233218;28;20037;-76
2022/05/04 12:45:27;;;;;;;6.93;4.40;;;;;;;23.01;39.58;100057.41;6241805;28;20049;-76
2022/05/04 12:48:28;;;;;;;10.07;5.18;;;;;;;22.83;39.73;100054.13;6209036;28;20054;-76
2022/05/04 12:51:29;;;;;;;5.90;4.65;;;;;;;23.48;38.79;100045.81;6222023;28;20049;-76
2022/05/04 12:54:30;;;;;;;7.70;4.27;;;;;;;23.19;37.29;100051.00;6204656;28;20505;-77
2022/05/04 12:57:31;;;;;;;6.47;3.88;;;;;;;23.73;37.86;100048.28;6237308;28;20141;-77
2022/05/04 13:00:33;;;;;;;4.60;3.45;;;;;;;23.97;33.96;100049.09;6237014;28;20056;-76
2022/05/04 13:03:35;;;;;;;4.25;3.00;;;;;;;24.23;32.27;100038.81;6224975;28;20512;-76
2022/05/04 13:06:36;;;;;;;5.40;3.42;;;;;;;23.98;31.20;100038.25;6225467;28;20057;-76
2022/05/04 13:09:37;;;;;;;5.32;3.20;;;;;;;24.00;32.05;100041.56;6225301;28;20046;-77
2022/05/04 13:12:37;;;;;;;4.80;3.37;;;;;;;24.15;35.06;100036.25;6226431;28;20049;-76
2022/05/04 13:15:39;;;;;;;4.28;3.40;;;;;;;24.23;34.17;100030.81;6241443;28;20080;-76
2022/05/04 13:18:39;;;;;;;4.97;3.50;;;;;;;23.99;34.49;100036.41;6226377;28;20045;-76
2022/05/04 13:21:40;;;;;;;5.18;3.50;;;;;;;23.73;34.02;100034.94;6224992;28;20073;-76
2022/05/04 13:24:41;;;;;;;8.90;3.53;;;;;;;23.48;33.56;100031.66;6224960;28;20060;-76
2022/05/04 13:27:43;;;;;;;5.15;3.67;;;;;;;23.67;35.45;100025.03;6225109;28;20117;-77
2022/05/04 13:30:44;;;;;;;5.90;3.72;;;;;;;23.60;37.33;100024.09;6224812;28;20128;-77
2022/05/04 13:33:47;;;;;;;9.55;4.00;;;;;;;23.31;37.10;100030.97;6208628;28;20599;-76
2022/05/04 13:36:48;;;;;;;5.93;3.75;;;;;;;23.36;35.60;100025.91;6241061;28;20498;-76
2022/05/04 13:39:49;;;;;;;7.15;3.95;;;;;;;22.88;36.75;100031.34;6224484;28;20049;-76
2022/05/04 13:42:51;;;;;;;6.10;3.80;;;;;;;22.76;37.98;100024.75;6224335;28;20056;-77
2022/05/04 13:45:52;;;;;;;10.52;4.30;;;;;;;22.02;38.95;100032.91;6208066;28;20062;-76
2022/05/04 13:48:54;;;;;;;7.17;4.10;;;;;;;22.27;37.83;100033.72;6224241;28;20352;-77
2022/05/04 13:55:14;;;;;;;5.75;3.90;;;;;;;22.57;37.79;100027.81;6238078;28;20042;-76
2022/05/04 13:58:18;;;;;;;5.20;3.90;;;;;;;22.63;37.94;100025.31;6224020;28;20108;-76
2022/05/04 14:01:19;;;;;;;6.85;4.20;;;;;;;22.68;37.42;100024.78;6225026;28;20041;-76
2022/05/04 14:04:20;;;;;;;4.78;4.05;;;;;;;22.85;38.27;100029.00;6225491;28;20041;-76
2022/05/04 14:07:21;;;;;;;8.13;3.97;;;;;;;22.93;39.91;100025.50;6236346;28;20048;-76
2022/05/04 14:10:22;;;;;;;6.77;3.67;;;;;;;22.85;37.50;100023.69;6207528;28;20053;-76
2022/05/04 14:13:26;;;;;;;3.45;3.13;;;;;;;23.02;35.71;100023.63;6255734;28;20050;-76
2022/05/04 14:16:27;;;;;;;7.57;3.83;;;;;;;22.96;35.41;100026.97;6223606;28;20042;-74
2022/05/04 14:19:28;;;;;;;9.57;4.07;;;;;;;22.36;36.88;100020.41;6223641;28;20474;-74
2022/05/04 14:22:29;;;;;;;5.83;4.00;;;;;;;22.43;36.19;100024.06;6190913;28;20053;-74
2022/05/04 14:25:29;;;;;;;5.60;4.20;;;;;;;22.64;36.10;100018.16;6224664;28;20076;-75
2022/05/04 14:28:30;;;;;;;5.63;3.83;;;;;;;22.79;35.31;100024.38;6223321;28;20049;-76
2022/05/04 14:31:33;;;;;;;4.13;3.17;;;;;;;22.83;35.17;100027.53;6224499;28;20042;-76
2022/05/04 14:34:34;;;;;;;6.53;3.83;;;;;;;22.67;36.77;100020.44;6223226;28;20103;-76